Time;durP1;ratioP1;P1;durP2;ratioP2;P2;SDS_P1;SDS_P2;PMS_P1;PMS_P2;Temp;Humidity;BMP_temperature;BMP_pressure;BME280_temperature;BME280_humidity;BME280_pressure;Samples;Min_cycle;Max_cycle;Signal;HPM_P1;HPM_P2
2024/04/12 00:01:51;;;;;;;3.22;0.30;;;;;;;;;;5441590;26;20015;-58
2024/04/12 00:04:20;;;;;;;2.85;0.40;;;;;;;;;;5438841;26;19998;-56
2024/04/12 00:06:54;;;;;;;7.93;0.55;;;;;;;;;;5440268;26;20350;-56
2024/04/12 00:09:22;;;;;;;4.07;0.60;;;;;;;;;;5440338;26;20011;-61
2024/04/12 00:11:49;;;;;;;3.40;0.70;;;;;;;;;;5443284;26;20408;-55
2024/04/12 00:14:17;;;;;;;5.50;0.60;;;;;;;;;;5406333;26;19998;-55
2024/04/12 00:16:44;;;;;;;4.00;0.65;;;;;;;;;;5437929;26;20087;-52
2024/04/12 00:19:24;;;;;;;4.20;0.50;;;;;;;;;;5440971;26;19999;-55
2024/04/12 00:21:52;;;;;;;1.15;0.40;;;;;;;;;;5442468;26;22432;-55
2024/04/12 00:24:23;;;;;;;1.05;0.40;;;;;;;;;;5437353;26;20604;-57
2024/04/12 00:27:08;;;;;;;2.85;0.47;;;;;;;;;;5361585;26;20099;-57
2024/04/12 00:29:37;;;;;;;5.22;1.02;;;;;;;;;;5364212;26;20003;-57
2024/04/12 00:32:13;;;;;;;5.78;0.80;;;;;;;;;;5364810;26;20011;-57
2024/04/12 02:46:27;;;;;;;17.73;1.10;;;;;;;;;;5340522;26;20355;-63
2024/04/12 02:48:54;;;;;;;37.25;3.85;;;;;;;;;;5262941;26;20014;-61
2024/04/12 02:51:22;;;;;;;20.63;2.50;;;;;;;;;;5262740;26;20006;-63
2024/04/12 02:53:50;;;;;;;11.35;1.30;;;;;;;;;;5262386;26;20007;-62
2024/04/12 02:56:18;;;;;;;8.57;1.02;;;;;;;;;;5240282;26;20409;-63
2024/04/12 02:58:45;;;;;;;10.45;1.15;;;;;;;;;;5261518;26;20017;-62
2024/04/12 03:01:18;;;;;;;9.95;1.63;;;;;;;;;;5261909;26;20021;-61
2024/04/12 03:03:46;;;;;;;7.72;1.40;;;;;;;;;;5258705;26;20430;-61
2024/04/12 03:06:13;;;;;;;5.63;1.25;;;;;;;;;;5256325;26;20465;-64
2024/04/12 03:08:52;;;;;;;13.30;1.83;;;;;;;;;;5263137;26;19999;-62
2024/04/12 03:11:22;;;;;;;9.25;1.23;;;;;;;;;;5262466;26;20013;-65
2024/04/12 03:13:53;;;;;;;9.35;1.02;;;;;;;;;;5263060;26;20022;-62
2024/04/12 03:16:20;;;;;;;10.23;1.60;;;;;;;;;;5260564;26;20006;-61
2024/04/12 03:18:53;;;;;;;9.00;1.48;;;;;;;;;;5280106;26;20468;-63
2024/04/12 03:21:30;;;;;;;14.23;1.63;;;;;;;;;;5263805;26;21216;-62
2024/04/12 03:23:57;;;;;;;12.20;1.60;;;;;;;;;;5266424;26;20543;-56
2024/04/12 03:26:24;;;;;;;14.02;1.98;;;;;;;;;;5264881;26;20006;-56
2024/04/12 03:28:58;;;;;;;10.27;1.20;;;;;;;;;;5270248;26;20038;-60
2024/04/12 03:31:28;;;;;;;4.60;0.90;;;;;;;;;;5264854;26;20219;-57
2024/04/12 03:33:55;;;;;;;4.95;0.82;;;;;;;;;;5273459;26;20378;-61
2024/04/12 03:36:28;;;;;;;4.30;1.13;;;;;;;;;;5253961;26;19998;-64
2024/04/12 03:42:03;;;;;;;9.05;1.20;;;;;;;;;;5282775;26;20011;-63
2024/04/12 03:44:34;;;;;;;13.05;1.60;;;;;;;;;;5262848;26;20479;-63
2024/04/12 03:47:08;;;;;;;15.13;2.13;;;;;;;;;;5266544;26;20069;-63
2024/04/12 03:49:38;;;;;;;17.75;2.60;;;;;;;;;;5267797;26;20014;-64
2024/04/12 03:52:11;;;;;;;17.92;2.67;;;;;;;;;;5268839;26;20005;-63
2024/04/12 03:54:38;;;;;;;19.50;2.40;;;;;;;;;;5272973;26;20200;-63
2024/04/12 03:57:09;;;;;;;14.30;2.08;;;;;;;;;;5255306;26;20010;-62
2024/04/12 03:59:36;;;;;;;15.45;2.00;;;;;;;;;;5255812;26;20014;-63
2024/04/12 04:02:08;;;;;;;9.00;1.65;;;;;;;;;;5248140;26;20422;-62
2024/04/12 04:04:44;;;;;;;15.40;2.95;;;;;;;;;;5247991;26;20014;-62
2024/04/12 04:07:14;;;;;;;13.63;1.83;;;;;;;;;;5252844;26;20462;-63
2024/04/12 04:09:42;;;;;;;12.20;1.77;;;;;;;;;;5249231;26;20440;-64
2024/04/12 04:12:15;;;;;;;11.00;2.10;;;;;;;;;;5266880;26;20002;-65
2024/04/12 04:14:47;;;;;;;12.45;2.20;;;;;;;;;;5302325;26;20725;-62
2024/04/12 04:17:15;;;;;;;17.50;2.63;;;;;;;;;;5250478;26;20007;-62
2024/04/12 04:19:42;;;;;;;14.43;2.47;;;;;;;;;;5219080;26;20042;-61
2024/04/12 04:25:31;;;;;;;15.35;2.63;;;;;;;;;;5282045;26;20017;-62
2024/04/12 04:27:58;;;;;;;21.95;2.95;;;;;;;;;;5245730;26;20014;-62
2024/04/12 04:30:25;;;;;;;16.85;2.35;;;;;;;;;;5246158;26;21055;-63
2024/04/12 04:32:53;;;;;;;14.65;2.50;;;;;;;;;;5245890;26;20085;-61
2024/04/12 04:35:26;;;;;;;13.27;2.08;;;;;;;;;;5249376;26;20077;-62
2024/04/12 04:37:56;;;;;;;17.02;2.30;;;;;;;;;;5247266;26;20021;-62
2024/04/12 04:40:25;;;;;;;18.27;2.85;;;;;;;;;;5247231;26;20017;-60
2024/04/12 04:42:54;;;;;;;26.42;2.85;;;;;;;;;;5248411;26;20010;-64
2024/04/12 04:45:21;;;;;;;24.50;2.83;;;;;;;;;;5245536;26;20007;-61
2024/04/12 04:47:48;;;;;;;19.08;2.67;;;;;;;;;;5248660;26;20010;-60
2024/04/12 04:50:18;;;;;;;18.48;3.15;;;;;;;;;;5247144;26;20470;-61
2024/04/12 04:52:44;;;;;;;22.80;3.47;;;;;;;;;;5247869;26;20014;-60
2024/04/12 04:55:14;;;;;;;22.30;3.05;;;;;;;;;;5246188;26;20038;-60
2024/04/12 04:57:43;;;;;;;18.23;3.40;;;;;;;;;;5249385;26;20007;-63
2024/04/12 05:00:18;;;;;;;23.35;3.33;;;;;;;;;;5270835;26;20013;-63
2024/04/12 05:02:50;;;;;;;16.08;2.17;;;;;;;;;;5243547;26;20039;-63
2024/04/12 05:05:41;;;;;;;21.23;2.28;;;;;;;;;;5256910;26;20015;-62
2024/04/12 05:08:06;;;;;;;12.48;2.10;;;;;;;;;;5246059;26;20430;-61
2024/04/12 05:10:36;;;;;;;22.55;2.58;;;;;;;;;;5258914;26;20010;-62
2024/04/12 05:13:04;;;;;;;20.27;2.00;;;;;;;;;;5247549;26;20014;-60
2024/04/12 05:15:49;;;;;;;13.95;2.30;;;;;;;;;;5279174;26;20473;-63
2024/04/12 05:18:16;;;;;;;11.57;2.10;;;;;;;;;;5280818;26;20001;-60
2024/04/12 05:20:47;;;;;;;32.55;2.92;;;;;;;;;;5254911;26;20024;-63
2024/04/12 05:23:20;;;;;;;14.85;2.13;;;;;;;;;;5278257;26;20377;-63
2024/04/12 05:25:46;;;;;;;13.52;1.83;;;;;;;;;;5222505;26;20033;-62
2024/04/12 05:28:13;;;;;;;25.65;2.53;;;;;;;;;;5278278;26;20053;-60
2024/04/12 05:30:43;;;;;;;24.77;2.95;;;;;;;;;;5277784;26;20008;-61
2024/04/12 05:33:11;;;;;;;31.25;2.45;;;;;;;;;;5277422;26;20607;-63
2024/04/12 05:35:38;;;;;;;13.35;1.80;;;;;;;;;;5276778;26;20002;-63
2024/04/12 05:38:07;;;;;;;21.25;2.15;;;;;;;;;;5245489;26;20861;-61
2024/04/12 05:40:39;;;;;;;16.52;1.75;;;;;;;;;;5277768;26;20479;-61
2024/04/12 05:43:15;;;;;;;40.20;3.33;;;;;;;;;;5278689;26;20010;-63
2024/04/12 05:45:50;;;;;;;10.15;1.70;;;;;;;;;;5277361;26;21422;-60
2024/04/12 05:48:17;;;;;;;17.75;2.15;;;;;;;;;;5276666;26;20005;-61
2024/04/12 05:50:48;;;;;;;8.95;1.65;;;;;;;;;;5277794;26;20061;-62
2024/04/12 05:53:15;;;;;;;16.13;1.95;;;;;;;;;;5258001;26;20026;-65
2024/04/12 05:55:46;;;;;;;15.60;2.53;;;;;;;;;;5244430;26;20005;-67
2024/04/12 05:58:13;;;;;;;14.82;1.83;;;;;;;;;;5242685;26;20012;-62
2024/04/12 06:00:43;;;;;;;8.45;1.55;;;;;;;;;;5245728;26;20049;-63
2024/04/12 06:03:16;;;;;;;11.23;2.17;;;;;;;;;;5281384;26;20076;-63
2024/04/12 06:05:43;;;;;;;10.57;1.88;;;;;;;;;;5244025;26;20006;-68
2024/04/12 06:08:12;;;;;;;14.30;1.90;;;;;;;;;;5247907;26;20010;-60
2024/04/12 06:10:44;;;;;;;5.05;1.70;;;;;;;;;;5278467;26;20282;-62
2024/04/12 06:13:11;;;;;;;11.45;2.15;;;;;;;;;;5277408;26;20586;-61
2024/04/12 06:15:39;;;;;;;10.63;1.90;;;;;;;;;;5275669;26;20005;-59
2024/04/12 06:18:08;;;;;;;16.92;1.77;;;;;;;;;;5274328;26;20002;-59
2024/04/12 06:20:35;;;;;;;14.05;2.10;;;;;;;;;;5270288;26;20032;-60
2024/04/12 06:23:11;;;;;;;9.82;2.08;;;;;;;;;;5254049;26;20014;-59
2024/04/12 06:25:38;;;;;;;10.90;1.70;;;;;;;;;;5273738;26;20377;-63
2024/04/12 06:28:13;;;;;;;17.73;1.92;;;;;;;;;;5276524;26;20010;-58
2024/04/12 06:30:59;;;;;;;19.48;2.03;;;;;;;;;;5276849;26;20026;-61
2024/04/12 06:33:28;;;;;;;14.35;1.98;;;;;;;;;;5292334;26;20349;-63
2024/04/12 06:36:16;;;;;;;11.38;2.08;;;;;;;;;;5281397;27;20037;-62
2024/04/12 06:38:43;;;;;;;7.50;1.67;;;;;;;;;;5277132;27;20056;-59
2024/04/12 06:41:10;;;;;;;6.97;1.55;;;;;;;;;;5294859;26;20701;-60
2024/04/12 06:43:47;;;;;;;12.60;1.90;;;;;;;;;;5250231;27;20013;-59
2024/04/12 06:46:14;;;;;;;6.72;1.30;;;;;;;;;;5280288;26;20118;-64
2024/04/12 06:48:41;;;;;;;2.40;0.93;;;;;;;;;;5256119;27;20008;-59
2024/04/12 06:51:12;;;;;;;6.60;1.13;;;;;;;;;;5280208;26;20461;-62
2024/04/12 06:53:44;;;;;;;7.13;0.93;;;;;;;;;;5286037;26;20006;-61
2024/04/12 06:56:17;;;;;;;9.52;1.20;;;;;;;;;;5273121;27;20002;-61
2024/04/12 06:58:47;;;;;;;8.18;1.35;;;;;;;;;;5277515;27;20006;-60
2024/04/12 07:01:15;;;;;;;6.53;0.98;;;;;;;;;;5252309;26;20065;-63
2024/04/12 07:03:45;;;;;;;4.43;0.93;;;;;;;;;;5245902;26;20010;-63
2024/04/12 07:06:16;;;;;;;2.25;0.73;;;;;;;;;;5265254;26;20002;-59
2024/04/12 07:08:49;;;;;;;5.43;0.98;;;;;;;;;;5246997;26;20525;-59
2024/04/12 07:11:21;;;;;;;1.67;0.70;;;;;;;;;;5252480;26;20027;-60
2024/04/12 07:13:49;;;;;;;;;;;;;;;;;;5243434;26;20007;-61
2024/04/12 07:16:19;;;;;;;2.67;0.70;;;;;;;;;;5265781;26;19935;-59
2024/04/12 07:18:49;;;;;;;2.72;0.70;;;;;;;;;;5247386;26;20108;-61
2024/04/12 07:21:16;;;;;;;2.38;0.68;;;;;;;;;;5245330;26;20876;-63
2024/04/12 07:23:48;;;;;;;2.35;0.85;;;;;;;;;;5244712;26;20003;-60
2024/04/12 07:26:24;;;;;;;1.05;0.45;;;;;;;;;;5266232;26;20359;-64
2024/04/12 07:29:01;;;;;;;3.92;0.70;;;;;;;;;;5244926;26;20355;-66
2024/04/12 07:31:34;;;;;;;8.30;1.13;;;;;;;;;;5245754;26;20014;-62
2024/04/12 07:34:07;;;;;;;6.13;0.75;;;;;;;;;;5248903;26;20010;-60
2024/04/12 07:36:34;;;;;;;2.88;0.88;;;;;;;;;;5294468;26;21188;-60
2024/04/12 07:39:04;;;;;;;4.00;0.73;;;;;;;;;;5233253;26;20075;-60
2024/04/12 07:41:34;;;;;;;2.67;1.27;;;;;;;;;;5244805;26;20006;-63
2024/04/12 07:44:04;;;;;;;1.77;0.60;;;;;;;;;;5278033;26;20010;-62
2024/04/12 07:46:34;;;;;;;4.20;0.90;;;;;;;;;;5249862;26;20017;-58
2024/04/12 07:49:07;;;;;;;8.52;1.48;;;;;;;;;;5249061;26;20051;-60
2024/04/12 07:51:39;;;;;;;3.70;0.77;;;;;;;;;;5247919;26;20037;-61
2024/04/12 07:54:11;;;;;;;6.70;1.20;;;;;;;;;;5286924;26;20016;-59
2024/04/12 07:56:43;;;;;;;4.15;0.82;;;;;;;;;;5254713;26;20093;-67
2024/04/12 07:59:28;;;;;;;11.80;1.25;;;;;;;;;;5315974;26;20013;-63
2024/04/12 08:01:57;;;;;;;5.05;1.05;;;;;;;;;;5317390;26;20059;-60
2024/04/12 08:04:25;;;;;;;5.53;1.23;;;;;;;;;;5322341;26;20005;-60
2024/04/12 08:06:58;;;;;;;1.52;0.65;;;;;;;;;;5290850;26;20007;-60
2024/04/12 08:09:34;;;;;;;3.00;0.68;;;;;;;;;;5316002;26;20008;-63
2024/04/12 08:12:14;;;;;;;1.00;0.63;;;;;;;;;;5315609;26;19998;-59
2024/04/12 08:14:51;;;;;;;2.45;0.70;;;;;;;;;;5317298;26;20044;-59
2024/04/12 08:17:23;;;;;;;1.92;0.47;;;;;;;;;;5316480;26;20015;-61
2024/04/12 08:19:55;;;;;;;2.65;0.60;;;;;;;;;;5317145;26;20005;-62
2024/04/12 08:22:21;;;;;;;;;;;;;;;;;;5317131;26;20001;-60
2024/04/12 08:24:51;;;;;;;1.88;0.85;;;;;;;;;;5317434;26;19959;-62
2024/04/12 08:27:19;;;;;;;2.28;0.80;;;;;;;;;;5317598;26;19997;-60
2024/04/12 08:29:49;;;;;;;4.55;0.80;;;;;;;;;;5313658;26;20017;-60
2024/04/12 08:32:19;;;;;;;1.70;0.90;;;;;;;;;;5314709;26;20008;-60
2024/04/12 08:34:49;;;;;;;3.78;0.85;;;;;;;;;;5316351;26;20009;-62
2024/04/12 08:37:17;;;;;;;4.85;0.60;;;;;;;;;;5277875;26;20029;-59
2024/04/12 08:39:44;;;;;;;2.92;0.73;;;;;;;;;;5248931;26;20003;-60
2024/04/12 08:42:14;;;;;;;4.18;0.65;;;;;;;;;;5252909;26;20006;-62
2024/04/12 08:44:49;;;;;;;3.97;0.70;;;;;;;;;;5251133;26;20360;-60
2024/04/12 08:47:16;;;;;;;2.33;0.60;;;;;;;;;;5251759;26;20558;-60
2024/04/12 08:49:51;;;;;;;7.72;0.85;;;;;;;;;;5256424;26;20039;-61
2024/04/12 08:52:31;;;;;;;2.60;0.68;;;;;;;;;;5252086;26;20002;-62
2024/04/12 08:54:59;;;;;;;5.82;0.90;;;;;;;;;;5250888;26;20017;-57
2024/04/12 08:57:33;;;;;;;3.00;0.73;;;;;;;;;;5253526;26;19998;-61
2024/04/12 09:00:00;;;;;;;4.60;0.70;;;;;;;;;;5257764;26;19998;-60
2024/04/12 09:02:30;;;;;;;9.50;1.17;;;;;;;;;;5257907;26;20307;-60
2024/04/12 09:04:57;;;;;;;2.90;0.70;;;;;;;;;;5238522;26;20082;-59
2024/04/12 09:07:24;;;;;;;1.15;0.57;;;;;;;;;;5243514;26;20346;-61
2024/04/12 09:09:58;;;;;;;1.38;0.65;;;;;;;;;;5255720;26;20010;-63
2024/04/12 09:12:44;;;;;;;1.17;0.70;;;;;;;;;;5230026;26;19999;-63
2024/04/12 09:15:23;;;;;;;3.03;0.77;;;;;;;;;;5227094;27;20011;-58
2024/04/12 09:18:08;;;;;;;4.70;0.93;;;;;;;;;;5224253;27;20014;-60
2024/04/12 09:20:38;;;;;;;0.60;0.43;;;;;;;;;;5211629;27;20017;-61
2024/04/12 09:23:14;;;;;;;1.13;0.63;;;;;;;;;;5238138;27;22313;-60
2024/04/12 09:25:58;;;;;;;1.35;0.60;;;;;;;;;;5234691;26;19998;-62
2024/04/12 09:28:32;;;;;;;0.75;0.60;;;;;;;;;;5234795;26;20007;-59
2024/04/12 09:33:50;;;;;;;3.70;1.02;;;;;;;;;;5236716;26;20061;-65
2024/04/12 09:36:39;;;;;;;2.17;0.70;;;;;;;;;;5237275;26;20030;-63
2024/04/12 09:39:16;;;;;;;2.05;0.60;;;;;;;;;;5233910;26;20374;-62
2024/04/12 09:41:56;;;;;;;2.95;0.60;;;;;;;;;;5196336;27;20078;-62
2024/04/12 09:44:27;;;;;;;1.17;0.52;;;;;;;;;;5233429;26;20007;-62
2024/04/12 10:37:28;;;;;;;1.73;0.75;;;;;;;;;;5246870;26;20082;-59
2024/04/12 10:39:59;;;;;;;3.13;0.52;;;;;;;;;;5245338;26;20022;-60
2024/04/12 10:42:25;;;;;;;0.98;0.50;;;;;;;;;;5243782;26;20359;-61
2024/04/12 10:44:56;;;;;;;2.40;0.75;;;;;;;;;;5246769;26;20006;-58
2024/04/12 10:47:28;;;;;;;3.78;0.70;;;;;;;;;;5265752;26;20006;-58
2024/04/12 10:49:58;;;;;;;3.65;1.00;;;;;;;;;;5231681;26;20174;-59
2024/04/12 10:52:31;;;;;;;1.20;0.80;;;;;;;;;;5219982;26;20010;-62
2024/04/12 10:55:08;;;;;;;1.55;0.50;;;;;;;;;;5247813;26;20072;-60
2024/04/12 10:57:34;;;;;;;3.13;0.85;;;;;;;;;;5288854;26;20024;-62
2024/04/12 11:00:01;;;;;;;3.15;0.60;;;;;;;;;;5246433;26;20480;-58
2024/04/12 11:02:30;;;;;;;0.98;0.50;;;;;;;;;;5245550;26;20065;-60
2024/04/12 11:06:17;;;;;;;2.75;0.60;;;;;;;;;;5271508;26;20002;-58
2024/04/12 11:07:54;;;;;;;2.88;0.88;;;;;;;;;;5249693;26;20108;-59
2024/04/12 11:10:38;;;;;;;4.07;1.00;;;;;;;;;;5248839;26;20080;-58
2024/04/12 11:13:07;;;;;;;4.95;0.82;;;;;;;;;;5254296;26;20009;-64
2024/04/12 11:31:53;;;;;;;4.40;0.60;;;;;;;;;;5248760;26;20333;-56
2024/04/12 11:34:20;;;;;;;0.93;0.40;;;;;;;;;;5302652;26;20462;-56
2024/04/12 11:36:47;;;;;;;2.10;1.08;;;;;;;;;;5277936;26;20017;-64
2024/04/12 11:39:17;;;;;;;2.00;0.63;;;;;;;;;;5258576;26;20026;-61
2024/04/12 11:41:45;;;;;;;3.83;1.00;;;;;;;;;;5247746;26;20027;-60
2024/04/12 11:44:17;;;;;;;1.33;0.70;;;;;;;;;;5248555;26;20101;-62
2024/04/12 11:46:48;;;;;;;3.92;1.17;;;;;;;;;;5250385;26;20468;-62
2024/04/12 11:50:10;;;;;;;1.27;0.73;;;;;;;;;;5247443;26;20013;-62
2024/04/12 11:52:03;;;;;;;1.75;0.40;;;;;;;;;;5260345;26;20022;-61
2024/04/12 11:54:31;;;;;;;14.70;1.08;;;;;;;;;;5230933;26;20610;-60
2024/04/12 11:57:05;;;;;;;2.72;0.60;;;;;;;;;;5249192;26;22382;-60
2024/04/12 11:59:32;;;;;;;4.72;0.82;;;;;;;;;;5248201;26;20722;-60
2024/04/12 12:02:04;;;;;;;1.88;0.60;;;;;;;;;;5263684;26;20014;-60
2024/04/12 12:04:31;;;;;;;0.85;0.47;;;;;;;;;;5300590;26;20051;-62
2024/04/12 12:07:03;;;;;;;3.78;0.50;;;;;;;;;;5234719;26;20012;-57
2024/04/12 12:09:31;;;;;;;2.72;0.65;;;;;;;;;;5246559;26;20502;-60
2024/04/12 12:12:00;;;;;;;2.97;0.50;;;;;;;;;;5246573;26;20006;-59
2024/04/12 12:14:28;;;;;;;3.38;0.60;;;;;;;;;;5247865;26;20006;-60
2024/04/12 12:16:58;;;;;;;1.65;0.70;;;;;;;;;;5251548;26;20051;-59
2024/04/12 12:19:24;;;;;;;0.75;0.38;;;;;;;;;;5282944;26;20360;-58
2024/04/12 12:21:51;;;;;;;0.40;0.30;;;;;;;;;;5248464;26;22059;-63
2024/04/12 12:24:18;;;;;;;4.22;0.60;;;;;;;;;;5302452;26;19994;-56
2024/04/12 12:26:44;;;;;;;3.10;0.50;;;;;;;;;;5248851;26;20795;-59
2024/04/12 12:29:15;;;;;;;8.90;1.20;;;;;;;;;;5248053;26;20088;-60
2024/04/12 12:31:42;;;;;;;3.42;0.60;;;;;;;;;;5247268;26;20011;-59
2024/04/12 12:34:11;;;;;;;2.67;0.68;;;;;;;;;;5247915;26;20361;-57
2024/04/12 12:36:38;;;;;;;3.03;0.50;;;;;;;;;;5249055;26;20078;-58
2024/04/12 12:39:05;;;;;;;4.55;0.55;;;;;;;;;;5282143;26;20017;-58
2024/04/12 12:41:32;;;;;;;0.60;0.40;;;;;;;;;;5256272;26;20109;-60
2024/04/12 12:44:18;;;;;;;3.40;0.57;;;;;;;;;;5260070;26;20021;-58
2024/04/12 12:46:45;;;;;;;2.42;0.40;;;;;;;;;;5259846;26;20641;-58
2024/04/12 12:49:12;;;;;;;0.82;0.30;;;;;;;;;;5258582;26;20002;-57
2024/04/12 12:51:40;;;;;;;0.63;0.40;;;;;;;;;;5261065;26;20046;-60
2024/04/12 12:54:07;;;;;;;5.88;0.60;;;;;;;;;;5259984;26;20006;-60
2024/04/12 12:56:35;;;;;;;0.93;0.40;;;;;;;;;;5289689;26;20021;-61
2024/04/12 12:59:22;;;;;;;6.07;0.95;;;;;;;;;;5287876;26;20347;-59
2024/04/12 13:01:51;;;;;;;2.47;0.50;;;;;;;;;;5285584;26;20017;-56
2024/04/12 13:04:18;;;;;;;2.22;0.40;;;;;;;;;;5270237;26;20078;-58
2024/04/12 13:06:44;;;;;;;2.30;0.45;;;;;;;;;;5295932;26;20151;-59
2024/04/12 13:09:17;;;;;;;0.50;0.45;;;;;;;;;;5268302;26;20016;-59
2024/04/12 13:11:43;;;;;;;0.38;0.20;;;;;;;;;;5285954;26;20327;-56
2024/04/12 13:14:10;;;;;;;2.08;0.30;;;;;;;;;;5288912;26;20017;-57
2024/04/12 13:16:41;;;;;;;0.85;0.45;;;;;;;;;;5322461;26;20092;-58
2024/04/12 13:19:15;;;;;;;2.05;0.30;;;;;;;;;;5314728;26;20053;-59
2024/04/12 13:21:45;;;;;;;1.02;0.40;;;;;;;;;;5308565;26;20028;-61
2024/04/12 13:24:14;;;;;;;1.65;0.50;;;;;;;;;;5334565;26;20000;-58
2024/04/12 13:26:50;;;;;;;0.57;0.20;;;;;;;;;;5310944;26;20500;-58
2024/04/12 13:29:21;;;;;;;1.70;0.40;;;;;;;;;;5310196;26;20723;-57
2024/04/12 13:31:50;;;;;;;;;;;;;;;;;;5269204;26;20011;-59
2024/04/12 13:34:34;;;;;;;1.17;0.30;;;;;;;;;;5212811;27;19936;-58
2024/04/12 13:37:02;;;;;;;2.00;0.40;;;;;;;;;;5205659;27;20019;-61
2024/04/12 13:39:34;;;;;;;2.55;0.40;;;;;;;;;;5152305;27;20019;-60
2024/04/12 13:42:06;;;;;;;1.20;0.45;;;;;;;;;;5212875;27;22292;-59
2024/04/12 13:53:08;;;;;;;;;;;;;;;;;;5235179;27;20060;-60
2024/04/12 13:55:36;;;;;;;9.00;0.60;;;;;;;;;;5183763;27;19932;-61
2024/04/12 13:58:05;;;;;;;1.70;0.32;;;;;;;;;;5176822;27;20022;-57
2024/04/12 14:00:32;;;;;;;4.43;0.50;;;;;;;;;;5176075;27;20019;-61
2024/04/12 14:03:06;;;;;;;2.78;0.70;;;;;;;;;;5146152;27;20072;-57
2024/04/12 14:05:35;;;;;;;1.85;0.40;;;;;;;;;;5172513;27;20012;-57
2024/04/12 14:08:07;;;;;;;9.02;0.68;;;;;;;;;;5178988;27;20008;-57
2024/04/12 14:10:35;;;;;;;2.85;0.43;;;;;;;;;;5157878;27;20072;-59
2024/04/12 14:13:04;;;;;;;2.03;0.40;;;;;;;;;;5231338;26;19999;-57
2024/04/12 14:15:32;;;;;;;6.55;0.50;;;;;;;;;;5236290;26;20190;-57
2024/04/12 14:18:00;;;;;;;2.70;0.52;;;;;;;;;;5238832;26;20504;-60
2024/04/12 14:20:27;;;;;;;4.18;0.80;;;;;;;;;;5221262;26;20006;-60
2024/04/12 14:22:53;;;;;;;3.75;0.32;;;;;;;;;;5237004;26;19998;-59
2024/04/12 14:25:20;;;;;;;2.28;0.50;;;;;;;;;;5209452;27;20003;-59
2024/04/12 14:27:47;;;;;;;1.88;0.70;;;;;;;;;;5219117;26;20026;-58
2024/04/12 14:30:15;;;;;;;1.10;0.25;;;;;;;;;;5222390;26;20014;-59
2024/04/12 14:32:50;;;;;;;9.05;0.60;;;;;;;;;;5240150;26;20126;-58
2024/04/12 14:35:22;;;;;;;1.75;0.25;;;;;;;;;;5244923;26;20063;-58
2024/04/12 14:37:48;;;;;;;;;;;;;;;;;;5271614;26;20459;-59
2024/04/12 14:40:20;;;;;;;6.28;0.75;;;;;;;;;;5243655;26;19927;-61
2024/04/12 14:42:47;;;;;;;;;;;;;;;;;;5246007;26;20010;-58
2024/04/12 14:45:13;;;;;;;0.38;0.13;;;;;;;;;;5272037;26;19927;-61
2024/04/12 14:47:40;;;;;;;3.15;0.50;;;;;;;;;;5241185;26;20162;-58
2024/04/12 14:50:10;;;;;;;7.72;0.80;;;;;;;;;;5230004;26;20326;-59
2024/04/12 14:52:43;;;;;;;11.57;0.95;;;;;;;;;;5243927;26;19998;-59
2024/04/12 14:55:12;;;;;;;5.88;0.30;;;;;;;;;;5273316;26;20018;-60
2024/04/12 14:57:49;;;;;;;12.32;1.50;;;;;;;;;;5245280;26;20014;-59
2024/04/12 15:00:20;;;;;;;5.70;0.50;;;;;;;;;;5244651;26;20022;-58
2024/04/12 15:49:28;;;;;;;3.97;0.43;;;;;;;;;;5284297;26;20018;-59
2024/04/12 15:51:56;;;;;;;0.80;0.20;;;;;;;;;;5232013;26;21431;-59
2024/04/12 15:54:26;;;;;;;2.65;0.28;;;;;;;;;;5236076;26;20003;-60
2024/04/12 16:10:52;;;;;;;5.10;0.32;;;;;;;;;;5236361;27;20016;-62
2024/04/12 16:13:21;;;;;;;2.67;0.28;;;;;;;;;;5239309;26;20003;-59
2024/04/12 16:15:48;;;;;;;3.90;0.40;;;;;;;;;;5237828;27;19998;-58
2024/04/12 16:18:15;;;;;;;0.90;0.28;;;;;;;;;;5236971;26;20011;-60
2024/04/12 16:20:41;;;;;;;2.28;0.30;;;;;;;;;;5234375;26;20018;-59
2024/04/12 16:23:12;;;;;;;2.05;0.30;;;;;;;;;;5234835;26;20340;-60
2024/04/12 16:25:39;;;;;;;1.02;0.38;;;;;;;;;;5248582;26;20002;-57
2024/04/12 16:28:06;;;;;;;6.07;0.40;;;;;;;;;;5246858;26;20350;-59
2024/04/12 16:30:32;;;;;;;1.17;0.28;;;;;;;;;;5272700;26;20020;-59
2024/04/12 16:32:59;;;;;;;2.15;0.38;;;;;;;;;;5247912;26;20006;-60
2024/04/12 16:35:26;;;;;;;1.77;0.20;;;;;;;;;;5244263;26;19998;-59
2024/04/12 16:37:52;;;;;;;0.32;0.20;;;;;;;;;;5245210;26;20890;-59
2024/04/12 16:40:19;;;;;;;0.75;0.30;;;;;;;;;;5245284;26;20006;-57
2024/04/12 16:42:45;;;;;;;1.80;0.40;;;;;;;;;;5245313;26;20464;-61
2024/04/12 16:45:12;;;;;;;0.30;0.20;;;;;;;;;;5246155;26;20018;-58
2024/04/12 16:47:39;;;;;;;2.45;0.35;;;;;;;;;;5245470;26;22108;-60
2024/04/12 16:50:06;;;;;;;0.15;0.10;;;;;;;;;;5248529;26;20554;-61
2024/04/12 16:52:35;;;;;;;4.57;0.60;;;;;;;;;;5298565;26;20369;-61
2024/04/12 16:55:04;;;;;;;1.85;0.30;;;;;;;;;;5247345;26;20096;-58
2024/04/12 16:57:30;;;;;;;5.57;0.32;;;;;;;;;;5246953;26;20010;-59
2024/04/12 16:59:57;;;;;;;2.17;0.30;;;;;;;;;;5245484;26;20017;-58
2024/04/12 17:02:23;;;;;;;2.15;0.20;;;;;;;;;;5249035;26;20636;-59
2024/04/12 17:04:52;;;;;;;1.30;0.20;;;;;;;;;;5248289;26;20058;-61
2024/04/12 17:07:19;;;;;;;1.65;0.30;;;;;;;;;;5245582;26;20463;-61
2024/04/12 17:09:45;;;;;;;1.77;1.13;;;;;;;;;;5246496;26;20100;-59
2024/04/12 17:12:12;;;;;;;0.60;0.20;;;;;;;;;;5248587;26;20014;-59
2024/04/12 17:14:39;;;;;;;1.52;0.30;;;;;;;;;;5244752;26;20014;-62
2024/04/12 17:17:05;;;;;;;2.05;0.30;;;;;;;;;;5247625;26;20466;-62
2024/04/12 17:19:32;;;;;;;2.35;0.68;;;;;;;;;;5244707;26;20010;-58
2024/04/12 17:21:59;;;;;;;1.48;0.32;;;;;;;;;;5246552;26;20014;-60
2024/04/12 17:24:25;;;;;;;4.30;0.30;;;;;;;;;;5245648;26;20012;-62
2024/04/12 17:26:53;;;;;;;3.08;0.35;;;;;;;;;;5248663;26;19994;-61
2024/04/12 17:29:23;;;;;;;1.52;0.22;;;;;;;;;;5248821;26;20016;-61
2024/04/12 17:31:53;;;;;;;0.60;0.50;;;;;;;;;;5244854;26;20927;-55
2024/04/12 17:34:19;;;;;;;0.88;0.20;;;;;;;;;;5247198;26;20039;-57
2024/04/12 17:36:46;;;;;;;1.08;0.10;;;;;;;;;;5248641;26;20488;-59
2024/04/12 17:39:13;;;;;;;1.05;0.10;;;;;;;;;;5246875;26;20022;-62
2024/04/12 17:41:39;;;;;;;0.20;0.20;;;;;;;;;;5274138;26;20041;-63
2024/04/12 17:44:09;;;;;;;0.20;0.20;;;;;;;;;;5244214;26;20010;-59
2024/04/12 17:46:36;;;;;;;3.45;0.30;;;;;;;;;;5246360;26;20009;-59
2024/04/12 17:49:04;;;;;;;0.73;0.30;;;;;;;;;;5248340;26;20046;-60
2024/04/12 17:51:32;;;;;;;0.30;0.28;;;;;;;;;;5243812;26;20017;-61
2024/04/12 17:53:59;;;;;;;1.48;0.30;;;;;;;;;;5249465;26;20003;-63
2024/04/12 17:56:25;;;;;;;0.82;0.30;;;;;;;;;;5250139;26;20154;-59
2024/04/12 17:58:52;;;;;;;1.40;0.30;;;;;;;;;;5249954;26;20719;-61
2024/04/12 18:01:18;;;;;;;0.68;0.22;;;;;;;;;;5250383;26;20013;-61
2024/04/12 18:03:45;;;;;;;3.38;0.13;;;;;;;;;;5250159;26;20003;-60
2024/04/12 18:06:14;;;;;;;0.95;0.28;;;;;;;;;;5252047;26;20014;-61
2024/04/12 18:08:58;;;;;;;1.73;0.20;;;;;;;;;;5201793;27;20059;-61
2024/04/12 18:11:25;;;;;;;5.35;0.50;;;;;;;;;;5159533;27;20493;-61
2024/04/12 18:13:51;;;;;;;3.42;0.70;;;;;;;;;;5201256;27;20022;-59
2024/04/12 18:16:19;;;;;;;1.02;0.20;;;;;;;;;;5202975;27;20019;-59
2024/04/12 18:18:46;;;;;;;1.23;0.20;;;;;;;;;;5187738;27;20109;-60
2024/04/12 18:21:15;;;;;;;1.85;0.30;;;;;;;;;;5175943;27;20021;-60
2024/04/12 18:23:42;;;;;;;1.40;0.13;;;;;;;;;;5202507;27;20199;-60
2024/04/12 18:26:09;;;;;;;1.17;0.20;;;;;;;;;;5191233;27;20010;-62
2024/04/12 18:28:35;;;;;;;0.30;0.10;;;;;;;;;;5200360;27;20018;-60
2024/04/12 18:31:06;;;;;;;0.88;0.30;;;;;;;;;;5201189;27;20011;-60
2024/04/12 18:33:33;;;;;;;2.70;0.40;;;;;;;;;;5189419;27;20180;-58
2024/04/12 18:36:12;;;;;;;0.65;0.10;;;;;;;;;;5200127;27;21492;-60
2024/04/12 18:46:54;;;;;;;1.17;0.20;;;;;;;;;;5251743;26;20147;-62
2024/04/12 18:49:21;;;;;;;0.35;0.20;;;;;;;;;;5285326;26;20006;-62
2024/04/12 18:51:48;;;;;;;2.92;0.50;;;;;;;;;;5299982;26;20131;-61
2024/04/12 18:54:15;;;;;;;0.20;0.17;;;;;;;;;;5230205;26;20012;-62
2024/04/12 18:56:42;;;;;;;2.40;0.60;;;;;;;;;;5234511;26;20025;-59
2024/04/12 18:59:09;;;;;;;0.98;0.35;;;;;;;;;;5242172;26;20090;-59
2024/04/12 19:01:36;;;;;;;1.23;0.40;;;;;;;;;;5244737;26;20007;-62
2024/04/12 19:04:03;;;;;;;3.40;0.50;;;;;;;;;;5246213;26;20062;-60
2024/04/12 19:06:31;;;;;;;0.90;0.20;;;;;;;;;;5254255;26;20003;-59
2024/04/12 19:08:59;;;;;;;0.35;0.22;;;;;;;;;;5245532;26;20427;-62
2024/04/12 19:11:26;;;;;;;1.77;0.30;;;;;;;;;;5251455;26;20002;-60
2024/04/12 19:13:53;;;;;;;1.75;0.20;;;;;;;;;;5241825;26;20006;-60
2024/04/12 19:16:20;;;;;;;3.10;0.57;;;;;;;;;;5245982;26;20003;-59
2024/04/12 19:18:46;;;;;;;2.70;0.30;;;;;;;;;;5244912;26;20617;-58
2024/04/12 19:21:13;;;;;;;1.42;0.40;;;;;;;;;;5244497;26;19998;-60
2024/04/12 19:23:40;;;;;;;0.63;0.30;;;;;;;;;;5244306;26;20018;-59
2024/04/12 19:26:06;;;;;;;1.45;0.40;;;;;;;;;;5230391;26;20440;-60
2024/04/12 19:28:33;;;;;;;1.55;0.30;;;;;;;;;;5245236;26;20003;-60
2024/04/12 19:31:06;;;;;;;7.55;0.75;;;;;;;;;;5251410;26;20010;-59
2024/04/12 19:33:33;;;;;;;2.95;0.38;;;;;;;;;;5252439;26;20068;-60
2024/04/12 19:36:03;;;;;;;2.85;0.70;;;;;;;;;;5248345;26;22183;-60
2024/04/12 19:38:30;;;;;;;4.53;0.30;;;;;;;;;;5250694;26;20046;-58
2024/04/12 19:41:01;;;;;;;1.45;0.30;;;;;;;;;;5252885;26;20328;-62
2024/04/12 19:43:29;;;;;;;0.85;0.28;;;;;;;;;;5253419;26;19999;-61